sensor_id;sensor_type;location;lat;lon;timestamp;pressure;altitude;pressure_sealevel;temperature;humidity
13209;BME280;6669;42.678;23.332;2023-02-11T00:00:38;96191.91;;;-3.34;100.00
13209;BME280;6669;42.678;23.332;2023-02-11T00:03:06;96206.38;;;-3.36;100.00
13209;BME280;6669;42.678;23.332;2023-02-11T00:05:34;96210.09;;;-3.46;100.00
13209;BME280;6669;42.678;23.332;2023-02-11T00:08:02;96200.19;;;-3.55;100.00
13209;BME280;6669;42.678;23.332;2023-02-11T00:10:30;96199.44;;;-3.59;100.00
13209;BME280;6669;42.678;23.332;2023-02-11T00:12:57;96205.44;;;-3.62;100.00
13209;BME280;6669;42.678;23.332;2023-02-11T00:15:27;96195.50;;;-3.68;100.00
13209;BME280;6669;42.678;23.332;2023-02-11T00:17:55;96207.22;;;-3.64;100.00
13209;BME280;6669;42.678;23.332;2023-02-11T00:20:23;96203.88;;;-3.66;100.00
13209;BME280;6669;42.678;23.332;2023-02-11T00:22:50;96203.16;;;-3.69;100.00
13209;BME280;6669;42.678;23.332;2023-02-11T00:25:19;96208.22;;;-3.68;100.00
13209;BME280;6669;42.678;23.332;2023-02-11T00:27:46;96197.41;;;-3.76;100.00
13209;BME280;6669;42.678;23.332;2023-02-11T00:30:14;96189.97;;;-3.82;100.00
13209;BME280;6669;42.678;23.332;2023-02-11T00:32:44;96193.22;;;-3.77;100.00
13209;BME280;6669;42.678;23.332;2023-02-11T00:35:12;96193.13;;;-3.74;100.00
13209;BME280;6669;42.678;23.332;2023-02-11T00:37:40;96197.41;;;-3.76;100.00
13209;BME280;6669;42.678;23.332;2023-02-11T00:40:09;96195.75;;;-3.77;100.00
13209;BME280;6669;42.678;23.332;2023-02-11T00:42:37;96195.84;;;-3.80;100.00
13209;BME280;6669;42.678;23.332;2023-02-11T00:45:05;96191.75;;;-3.84;100.00
13209;BME280;6669;42.678;23.332;2023-02-11T00:47:35;96201.81;;;-3.81;100.00
13209;BME280;6669;42.678;23.332;2023-02-11T00:50:05;96193.50;;;-3.86;100.00
13209;BME280;6669;42.678;23.332;2023-02-11T00:52:33;96167.91;;;-4.10;100.00
13209;BME280;6669;42.678;23.332;2023-02-11T00:55:02;96196.47;;;-4.02;100.00
13209;BME280;6669;42.678;23.332;2023-02-11T00:57:29;96182.38;;;-4.12;100.00
13209;BME280;6669;42.678;23.332;2023-02-11T00:59:57;96184.00;;;-4.09;100.00
13209;BME280;6669;42.678;23.332;2023-02-11T01:02:25;96188.41;;;-4.16;100.00
13209;BME280;6669;42.678;23.332;2023-02-11T01:04:53;96185.03;;;-4.17;100.00
13209;BME280;6669;42.678;23.332;2023-02-11T01:07:23;96175.00;;;-4.21;100.00
13209;BME280;6669;42.678;23.332;2023-02-11T01:09:50;96184.19;;;-4.16;100.00
13209;BME280;6669;42.678;23.332;2023-02-11T01:12:19;96176.63;;;-4.19;100.00
13209;BME280;6669;42.678;23.332;2023-02-11T01:14:47;96174.88;;;-4.17;100.00
13209;BME280;6669;42.678;23.332;2023-02-11T01:17:15;96179.00;;;-4.13;100.00
13209;BME280;6669;42.678;23.332;2023-02-11T01:19:43;96182.25;;;-4.07;100.00
13209;BME280;6669;42.678;23.332;2023-02-11T01:22:11;96178.78;;;-4.05;100.00
13209;BME280;6669;42.678;23.332;2023-02-11T01:24:41;96182.25;;;-4.07;100.00
13209;BME280;6669;42.678;23.332;2023-02-11T01:27:09;96177.25;;;-4.11;100.00
13209;BME280;6669;42.678;23.332;2023-02-11T01:29:37;96185.00;;;-4.15;100.00
13209;BME280;6669;42.678;23.332;2023-02-11T01:32:05;96180.94;;;-4.21;100.00
13209;BME280;6669;42.678;23.332;2023-02-11T01:34:33;96181.22;;;-4.30;100.00
13209;BME280;6669;42.678;23.332;2023-02-11T01:37:01;96172.66;;;-4.28;100.00
13209;BME280;6669;42.678;23.332;2023-02-11T01:39:31;96177.81;;;-4.31;100.00
13209;BME280;6669;42.678;23.332;2023-02-11T01:42:01;96174.63;;;-4.37;100.00
13209;BME280;6669;42.678;23.332;2023-02-11T01:44:31;96167.06;;;-4.39;100.00
13209;BME280;6669;42.678;23.332;2023-02-11T01:47:00;96166.44;;;-4.47;100.00
13209;BME280;6669;42.678;23.332;2023-02-11T01:49:32;96166.47;;;-4.49;100.00
13209;BME280;6669;42.678;23.332;2023-02-11T01:52:04;96160.69;;;-4.54;100.00
13209;BME280;6669;42.678;23.332;2023-02-11T01:54:37;96156.53;;;-4.56;100.00
13209;BME280;6669;42.678;23.332;2023-02-11T01:57:26;96146.28;;;-4.53;100.00
13209;BME280;6669;42.678;23.332;2023-02-11T02:00:00;96159.50;;;-4.42;100.00
13209;BME280;6669;42.678;23.332;2023-02-11T02:02:33;96167.06;;;-4.39;100.00
13209;BME280;6669;42.678;23.332;2023-02-11T02:05:07;96152.00;;;-4.45;100.00
13209;BME280;6669;42.678;23.332;2023-02-11T02:07:41;96160.38;;;-4.43;100.00
13209;BME280;6669;42.678;23.332;2023-02-11T02:10:16;96171.44;;;-4.46;100.00
13209;BME280;6669;42.678;23.332;2023-02-11T02:12:47;96168.91;;;-4.44;100.00
13209;BME280;6669;42.678;23.332;2023-02-11T02:15:24;96170.53;;;-4.43;100.00
13209;BME280;6669;42.678;23.332;2023-02-11T02:17:59;96160.66;;;-4.52;100.00
13209;BME280;6669;42.678;23.332;2023-02-11T02:23:39;96163.44;;;-4.62;100.00
13209;BME280;6669;42.678;23.332;2023-02-11T02:26:39;96170.41;;;-4.68;100.00
13209;BME280;6669;42.678;23.332;2023-02-11T02:32:38;96158.69;;;-4.74;100.00
13209;BME280;6669;42.678;23.332;2023-02-11T02:35:18;96150.38;;;-4.79;100.00
13209;BME280;6669;42.678;23.332;2023-02-11T02:38:03;96161.97;;;-4.70;100.00
13209;BME280;6669;42.678;23.332;2023-02-11T02:40:45;96162.09;;;-4.75;100.00
13209;BME280;6669;42.678;23.332;2023-02-11T02:43:16;96153.72;;;-4.77;100.00
13209;BME280;6669;42.678;23.332;2023-02-11T02:45:45;96158.78;;;-4.77;100.00
13209;BME280;6669;42.678;23.332;2023-02-11T02:48:28;96152.81;;;-4.76;100.00
13209;BME280;6669;42.678;23.332;2023-02-11T02:51:19;96157.72;;;-4.70;100.00
13209;BME280;6669;42.678;23.332;2023-02-11T02:53:59;96147.56;;;-4.70;100.00
13209;BME280;6669;42.678;23.332;2023-02-11T02:56:38;96162.03;;;-4.72;100.00
13209;BME280;6669;42.678;23.332;2023-02-11T02:59:26;96168.03;;;-4.76;100.00
13209;BME280;6669;42.678;23.332;2023-02-11T03:02:04;96169.66;;;-4.73;100.00
13209;BME280;6669;42.678;23.332;2023-02-11T03:04:45;96150.94;;;-5.01;100.00
13209;BME280;6669;42.678;23.332;2023-02-11T03:07:22;96166.84;;;-4.96;100.00
13209;BME280;6669;42.678;23.332;2023-02-11T03:09:55;96168.69;;;-5.01;100.00
13209;BME280;6669;42.678;23.332;2023-02-11T03:12:27;96169.47;;;-4.99;100.00
13209;BME280;6669;42.678;23.332;2023-02-11T03:14:58;96160.22;;;-5.00;100.00
13209;BME280;6669;42.678;23.332;2023-02-11T03:17:29;96160.97;;;-4.96;100.00
13209;BME280;6669;42.678;23.332;2023-02-11T03:20:00;96164.22;;;-4.91;100.00
13209;BME280;6669;42.678;23.332;2023-02-11T03:22:34;96172.84;;;-4.98;100.00
13209;BME280;6669;42.678;23.332;2023-02-11T03:25:04;96159.59;;;-5.10;100.00
13209;BME280;6669;42.678;23.332;2023-02-11T03:27:38;96170.41;;;-5.03;100.00
13209;BME280;6669;42.678;23.332;2023-02-11T03:30:12;96163.69;;;-5.04;100.00
13209;BME280;6669;42.678;23.332;2023-02-11T03:32:46;96166.94;;;-4.99;100.00
13209;BME280;6669;42.678;23.332;2023-02-11T03:35:20;96160.25;;;-5.01;100.00
13209;BME280;6669;42.678;23.332;2023-02-11T03:37:51;96171.31;;;-5.05;100.00
13209;BME280;6669;42.678;23.332;2023-02-11T03:40:23;96173.84;;;-5.04;100.00
13209;BME280;6669;42.678;23.332;2023-02-11T03:42:55;96160.34;;;-5.06;100.00
13209;BME280;6669;42.678;23.332;2023-02-11T03:45:24;96155.13;;;-5.00;100.00
13209;BME280;6669;42.678;23.332;2023-02-11T03:47:56;96161.91;;;-5.00;100.00
13209;BME280;6669;42.678;23.332;2023-02-11T03:50:29;96153.56;;;-5.04;100.00
13209;BME280;6669;42.678;23.332;2023-02-11T03:53:01;96151.88;;;-5.05;100.00
13209;BME280;6669;42.678;23.332;2023-02-11T03:55:29;96159.44;;;-5.03;100.00
13209;BME280;6669;42.678;23.332;2023-02-11T03:58:00;96162.09;;;-5.08;100.00
13209;BME280;6669;42.678;23.332;2023-02-11T04:00:29;96160.59;;;-5.15;100.00
13209;BME280;6669;42.678;23.332;2023-02-11T04:02:57;96154.63;;;-5.13;100.00
13209;BME280;6669;42.678;23.332;2023-02-11T04:05:27;96154.63;;;-5.14;100.00
13209;BME280;6669;42.678;23.332;2023-02-11T04:07:55;96160.56;;;-5.14;100.00
13209;BME280;6669;42.678;23.332;2023-02-11T04:10:23;96153.72;;;-5.12;100.00
13209;BME280;6669;42.678;23.332;2023-02-11T04:12:51;96160.41;;;-5.09;100.00
13209;BME280;6669;42.678;23.332;2023-02-11T04:15:19;96151.22;;;-5.13;100.00
13209;BME280;6669;42.678;23.332;2023-02-11T04:17:47;96154.34;;;-5.02;100.00
13209;BME280;6669;42.678;23.332;2023-02-11T04:20:15;96156.19;;;-5.09;100.00
13209;BME280;6669;42.678;23.332;2023-02-11T04:22:44;96157.03;;;-5.08;100.00
13209;BME280;6669;42.678;23.332;2023-02-11T04:25:12;96155.13;;;-5.00;100.00
13209;BME280;6669;42.678;23.332;2023-02-11T04:27:40;96154.28;;;-5.00;100.00
13209;BME280;6669;42.678;23.332;2023-02-11T04:30:10;96159.34;;;-4.99;100.00
13209;BME280;6669;42.678;23.332;2023-02-11T04:32:39;96148.63;;;-5.10;100.00
13209;BME280;6669;42.678;23.332;2023-02-11T04:35:07;96151.38;;;-5.18;100.00
13209;BME280;6669;42.678;23.332;2023-02-11T04:37:35;96152.09;;;-5.14;100.00
13209;BME280;6669;42.678;23.332;2023-02-11T04:40:05;96151.38;;;-5.18;100.00
13209;BME280;6669;42.678;23.332;2023-02-11T04:42:33;96138.00;;;-5.25;100.00
13209;BME280;6669;42.678;23.332;2023-02-11T04:45:01;96142.91;;;-5.18;100.00
13209;BME280;6669;42.678;23.332;2023-02-11T04:47:29;96143.56;;;-5.10;100.00
13209;BME280;6669;42.678;23.332;2023-02-11T04:49:57;96142.66;;;-5.07;100.00
13209;BME280;6669;42.678;23.332;2023-02-11T04:52:25;96148.63;;;-5.10;100.00
13209;BME280;6669;42.678;23.332;2023-02-11T04:54:53;96148.47;;;-5.04;100.00
13209;BME280;6669;42.678;23.332;2023-02-11T04:57:22;96146.63;;;-4.97;100.00
13209;BME280;6669;42.678;23.332;2023-02-11T04:59:50;96147.56;;;-5.01;100.00
13209;BME280;6669;42.678;23.332;2023-02-11T05:02:18;96138.75;;;-5.21;100.00
13209;BME280;6669;42.678;23.332;2023-02-11T05:04:46;96142.13;;;-5.20;100.00
13209;BME280;6669;42.678;23.332;2023-02-11T05:07:13;96143.16;;;-5.28;100.00
13209;BME280;6669;42.678;23.332;2023-02-11T05:09:41;96139.84;;;-5.31;100.00
13209;BME280;6669;42.678;23.332;2023-02-11T05:12:09;96140.09;;;-5.40;100.00
13209;BME280;6669;42.678;23.332;2023-02-11T05:14:39;96134.13;;;-5.38;100.00
13209;BME280;6669;42.678;23.332;2023-02-11T05:17:07;96129.19;;;-5.44;100.00
13209;BME280;6669;42.678;23.332;2023-02-11T05:19:35;96130.88;;;-5.43;100.00
13209;BME280;6669;42.678;23.332;2023-02-11T05:22:02;96130.25;;;-5.53;100.00
13209;BME280;6669;42.678;23.332;2023-02-11T05:24:31;96130.91;;;-5.46;100.00
13209;BME280;6669;42.678;23.332;2023-02-11T05:26:59;96129.34;;;-5.50;100.00
13209;BME280;6669;42.678;23.332;2023-02-11T05:29:27;96133.19;;;-5.70;100.00
13209;BME280;6669;42.678;23.332;2023-02-11T05:31:57;96124.63;;;-5.66;100.00
13209;BME280;6669;42.678;23.332;2023-02-11T05:34:25;96131.66;;;-5.77;100.00
13209;BME280;6669;42.678;23.332;2023-02-11T05:36:53;96132.69;;;-5.86;100.00
13209;BME280;6669;42.678;23.332;2023-02-11T05:39:21;96133.91;;;-6.01;100.00
13209;BME280;6669;42.678;23.332;2023-02-11T05:41:49;96133.97;;;-6.04;100.00
13209;BME280;6669;42.678;23.332;2023-02-11T05:44:17;96132.41;;;-6.10;100.00
13209;BME280;6669;42.678;23.332;2023-02-11T05:46:45;96134.19;;;-6.13;100.00
13209;BME280;6669;42.678;23.332;2023-02-11T05:49:16;96138.34;;;-6.12;100.00
13209;BME280;6669;42.678;23.332;2023-02-11T05:51:46;96142.69;;;-6.17;100.00
13209;BME280;6669;42.678;23.332;2023-02-11T05:54:14;96140.16;;;-6.16;100.00
13209;BME280;6669;42.678;23.332;2023-02-11T05:56:42;96137.44;;;-6.10;100.00
13209;BME280;6669;42.678;23.332;2023-02-11T05:59:12;96119.47;;;-6.35;100.00
13209;BME280;6669;42.678;23.332;2023-02-11T06:01:40;96141.22;;;-6.28;100.00
13209;BME280;6669;42.678;23.332;2023-02-11T06:04:08;96156.47;;;-6.31;100.00
13209;BME280;6669;42.678;23.332;2023-02-11T06:06:38;96150.63;;;-6.34;100.00
13209;BME280;6669;42.678;23.332;2023-02-11T06:09:05;96142.84;;;-6.23;100.00
13209;BME280;6669;42.678;23.332;2023-02-11T06:11:34;96153.00;;;-6.27;100.00
13209;BME280;6669;42.678;23.332;2023-02-11T06:14:02;96153.09;;;-6.31;100.00
13209;BME280;6669;42.678;23.332;2023-02-11T06:16:30;96148.19;;;-6.37;100.00
13209;BME280;6669;42.678;23.332;2023-02-11T06:19:01;96158.34;;;-6.41;100.00
13209;BME280;6669;42.678;23.332;2023-02-11T06:21:29;96154.94;;;-6.38;100.00
13209;BME280;6669;42.678;23.332;2023-02-11T06:24:11;96157.41;;;-6.36;100.00
13209;BME280;6669;42.678;23.332;2023-02-11T06:26:39;96149.81;;;-6.36;100.00
13209;BME280;6669;42.678;23.332;2023-02-11T06:29:07;96148.88;;;-6.31;100.00
13209;BME280;6669;42.678;23.332;2023-02-11T06:31:36;96159.88;;;-6.32;100.00
13209;BME280;6669;42.678;23.332;2023-02-11T06:34:05;96149.63;;;-6.26;100.00
13209;BME280;6669;42.678;23.332;2023-02-11T06:36:33;96150.47;;;-6.27;100.00
13209;BME280;6669;42.678;23.332;2023-02-11T06:39:02;96153.53;;;-6.11;100.00
13209;BME280;6669;42.678;23.332;2023-02-11T06:41:32;96162.63;;;-6.03;100.00
13209;BME280;6669;42.678;23.332;2023-02-11T06:44:00;96158.88;;;-5.85;100.00
13209;BME280;6669;42.678;23.332;2023-02-11T06:46:28;96158.00;;;-5.86;100.00
13209;BME280;6669;42.678;23.332;2023-02-11T06:48:56;96157.06;;;-5.80;100.00
13209;BME280;6669;42.678;23.332;2023-02-11T06:51:24;96160.91;;;-5.65;100.00
13209;BME280;6669;42.678;23.332;2023-02-11T06:53:51;96165.97;;;-5.64;100.00
13209;BME280;6669;42.678;23.332;2023-02-11T06:56:21;96161.69;;;-5.62;100.00
13209;BME280;6669;42.678;23.332;2023-02-11T06:58:53;96166.56;;;-5.54;100.00
13209;BME280;6669;42.678;23.332;2023-02-11T07:01:23;96169.72;;;-5.44;100.00
13209;BME280;6669;42.678;23.332;2023-02-11T07:03:52;96155.41;;;-5.45;100.00
13209;BME280;6669;42.678;23.332;2023-02-11T07:06:26;96157.84;;;-5.40;100.00
13209;BME280;6669;42.678;23.332;2023-02-11T07:09:09;96123.44;;;-5.51;100.00
13209;BME280;6669;42.678;23.332;2023-02-11T07:11:40;96150.59;;;-5.21;100.00
13209;BME280;6669;42.678;23.332;2023-02-11T07:14:10;96150.47;;;-5.15;100.00
13209;BME280;6669;42.678;23.332;2023-02-11T07:16:38;96156.72;;;-4.96;100.00
13209;BME280;6669;42.678;23.332;2023-02-11T07:19:06;96156.63;;;-4.93;100.00
13209;BME280;6669;42.678;23.332;2023-02-11T07:21:34;96153.91;;;-4.85;100.00
13209;BME280;6669;42.678;23.332;2023-02-11T07:24:05;96157.38;;;-4.87;100.00
13209;BME280;6669;42.678;23.332;2023-02-11T07:26:36;96142.31;;;-4.94;100.00
13209;BME280;6669;42.678;23.332;2023-02-11T07:29:04;96155.03;;;-4.97;100.00
13209;BME280;6669;42.678;23.332;2023-02-11T07:31:34;96140.63;;;-4.95;100.00
13209;BME280;6669;42.678;23.332;2023-02-11T07:34:02;96136.59;;;-4.70;100.00
13209;BME280;6669;42.678;23.332;2023-02-11T07:36:31;96140.56;;;-4.60;100.00
13209;BME280;6669;42.678;23.332;2023-02-11T07:38:59;96137.91;;;-4.57;100.00
13209;BME280;6669;42.678;23.332;2023-02-11T07:41:27;96132.06;;;-4.59;100.00
13209;BME280;6669;42.678;23.332;2023-02-11T07:43:55;96135.25;;;-4.52;100.00
13209;BME280;6669;42.678;23.332;2023-02-11T07:46:25;96131.75;;;-4.47;100.00
13209;BME280;6669;42.678;23.332;2023-02-11T07:48:55;96129.63;;;-4.32;100.00
13209;BME280;6669;42.678;23.332;2023-02-11T07:51:24;96126.75;;;-4.20;100.00
13209;BME280;6669;42.678;23.332;2023-02-11T07:53:54;96127.97;;;-4.05;100.00
13209;BME280;6669;42.678;23.332;2023-02-11T07:56:23;96126.25;;;-4.03;100.00
13209;BME280;6669;42.678;23.332;2023-02-11T07:58:51;96124.38;;;-3.98;100.00
13209;BME280;6669;42.678;23.332;2023-02-11T08:01:20;96125.88;;;-3.90;100.00
13209;BME280;6669;42.678;23.332;2023-02-11T08:03:51;96128.31;;;-3.87;100.00
13209;BME280;6669;42.678;23.332;2023-02-11T08:06:21;96120.50;;;-3.81;100.00
13209;BME280;6669;42.678;23.332;2023-02-11T08:08:50;96115.25;;;-3.75;100.00
13209;BME280;6669;42.678;23.332;2023-02-11T08:11:20;96122.75;;;-3.72;100.00
13209;BME280;6669;42.678;23.332;2023-02-11T08:13:48;96118.34;;;-3.65;100.00
13209;BME280;6669;42.678;23.332;2023-02-11T08:16:18;96120.88;;;-3.65;100.00
13209;BME280;6669;42.678;23.332;2023-02-11T08:18:47;96106.38;;;-3.63;100.00
13209;BME280;6669;42.678;23.332;2023-02-11T08:21:16;96108.19;;;-3.40;100.00
13209;BME280;6669;42.678;23.332;2023-02-11T08:23:46;96126.38;;;-3.25;100.00
13209;BME280;6669;42.678;23.332;2023-02-11T08:26:16;96119.19;;;-3.39;100.00
13209;BME280;6669;42.678;23.332;2023-02-11T08:28:46;96114.75;;;-3.33;100.00
13209;BME280;6669;42.678;23.332;2023-02-11T08:31:16;96114.16;;;-3.16;100.00
13209;BME280;6669;42.678;23.332;2023-02-11T08:33:44;96107.47;;;-2.93;100.00
13209;BME280;6669;42.678;23.332;2023-02-11T08:36:14;96116.97;;;-2.73;100.00
13209;BME280;6669;42.678;23.332;2023-02-11T08:38:42;96108.19;;;-2.64;100.00
13209;BME280;6669;42.678;23.332;2023-02-11T08:41:12;96116.59;;;-2.62;100.00
13209;BME280;6669;42.678;23.332;2023-02-11T08:43:41;96113.22;;;-2.63;100.00
13209;BME280;6669;42.678;23.332;2023-02-11T08:46:12;96117.09;;;-2.52;100.00
13209;BME280;6669;42.678;23.332;2023-02-11T08:48:40;96112.63;;;-2.45;100.00
13209;BME280;6669;42.678;23.332;2023-02-11T08:51:11;96109.22;;;-2.46;100.00
13209;BME280;6669;42.678;23.332;2023-02-11T08:53:39;96112.38;;;-2.39;100.00
13209;BME280;6669;42.678;23.332;2023-02-11T08:56:08;96115.47;;;-2.31;100.00
13209;BME280;6669;42.678;23.332;2023-02-11T08:58:42;96116.97;;;-2.25;100.00
13209;BME280;6669;42.678;23.332;2023-02-11T09:01:12;96113.88;;;-2.10;100.00
13209;BME280;6669;42.678;23.332;2023-02-11T09:03:40;96104.13;;;-2.00;100.00
13209;BME280;6669;42.678;23.332;2023-02-11T09:06:09;96104.63;;;-1.90;100.00
13209;BME280;6669;42.678;23.332;2023-02-11T09:08:39;96108.47;;;-1.80;100.00
13209;BME280;6669;42.678;23.332;2023-02-11T09:11:11;96107.13;;;-1.67;100.00
13209;BME280;6669;42.678;23.332;2023-02-11T09:13:42;96100.94;;;-1.61;100.00
13209;BME280;6669;42.678;23.332;2023-02-11T09:16:15;96103.19;;;-1.53;100.00
13209;BME280;6669;42.678;23.332;2023-02-11T09:18:45;96107.00;;;-1.43;100.00
13209;BME280;6669;42.678;23.332;2023-02-11T09:21:14;96083.03;;;-1.59;100.00
13209;BME280;6669;42.678;23.332;2023-02-11T09:23:42;96100.78;;;-1.36;100.00
13209;BME280;6669;42.678;23.332;2023-02-11T09:26:14;96094.09;;;-1.18;100.00
13209;BME280;6669;42.678;23.332;2023-02-11T09:28:44;96088.88;;;-1.14;100.00
13209;BME280;6669;42.678;23.332;2023-02-11T09:31:15;96092.56;;;-1.01;100.00
13209;BME280;6669;42.678;23.332;2023-02-11T09:33:45;96097.72;;;-1.03;100.00
13209;BME280;6669;42.678;23.332;2023-02-11T09:36:16;96092.56;;;-1.22;100.00
13209;BME280;6669;42.678;23.332;2023-02-11T09:38:45;96087.06;;;-1.12;100.00
13209;BME280;6669;42.678;23.332;2023-02-11T09:41:26;96084.94;;;-0.82;100.00
13209;BME280;6669;42.678;23.332;2023-02-11T09:44:02;96086.09;;;-0.69;100.00
13209;BME280;6669;42.678;23.332;2023-02-11T09:46:34;96069.31;;;-0.36;100.00
13209;BME280;6669;42.678;23.332;2023-02-11T09:49:04;96061.31;;;0.45;98.50
13209;BME280;6669;42.678;23.332;2023-02-11T09:51:37;96056.38;;;0.93;94.38
13209;BME280;6669;42.678;23.332;2023-02-11T09:54:13;96061.00;;;1.69;91.40
13209;BME280;6669;42.678;23.332;2023-02-11T09:56:44;96055.81;;;1.87;88.08
13209;BME280;6669;42.678;23.332;2023-02-11T09:59:14;96054.31;;;2.15;87.62
13209;BME280;6669;42.678;23.332;2023-02-11T10:01:46;96042.81;;;2.22;85.69
13209;BME280;6669;42.678;23.332;2023-02-11T10:04:25;96038.50;;;2.53;84.35
13209;BME280;6669;42.678;23.332;2023-02-11T10:06:56;96035.59;;;2.28;83.04
13209;BME280;6669;42.678;23.332;2023-02-11T10:09:39;96024.19;;;2.18;80.53
13209;BME280;6669;42.678;23.332;2023-02-11T10:12:22;96022.56;;;2.62;78.78
13209;BME280;6669;42.678;23.332;2023-02-11T10:15:07;96017.22;;;3.39;77.13
13209;BME280;6669;42.678;23.332;2023-02-11T10:17:44;96011.31;;;3.66;72.39
13209;BME280;6669;42.678;23.332;2023-02-11T10:20:22;95995.19;;;3.76;69.46
13209;BME280;6669;42.678;23.332;2023-02-11T10:22:53;95996.66;;;4.08;67.63
13209;BME280;6669;42.678;23.332;2023-02-11T10:25:24;95980.38;;;4.48;65.30
13209;BME280;6669;42.678;23.332;2023-02-11T10:27:55;95975.44;;;4.45;65.23
13209;BME280;6669;42.678;23.332;2023-02-11T10:30:30;95971.16;;;4.97;63.52
13209;BME280;6669;42.678;23.332;2023-02-11T10:33:02;95963.50;;;5.08;61.03
13209;BME280;6669;42.678;23.332;2023-02-11T10:35:31;95959.09;;;4.84;61.18
13209;BME280;6669;42.678;23.332;2023-02-11T10:37:59;95946.63;;;4.78;62.05
13209;BME280;6669;42.678;23.332;2023-02-11T10:40:28;95939.59;;;4.93;61.60
13209;BME280;6669;42.678;23.332;2023-02-11T10:42:59;95927.78;;;4.78;60.24
13209;BME280;6669;42.678;23.332;2023-02-11T10:45:32;95934.66;;;4.38;60.54
13209;BME280;6669;42.678;23.332;2023-02-11T10:48:03;95915.72;;;4.65;60.79
13209;BME280;6669;42.678;23.332;2023-02-11T10:50:33;95921.88;;;4.75;58.97
13209;BME280;6669;42.678;23.332;2023-02-11T10:53:16;95920.41;;;5.10;57.84
13209;BME280;6669;42.678;23.332;2023-02-11T10:55:50;95911.97;;;5.08;59.81
13209;BME280;6669;42.678;23.332;2023-02-11T10:58:24;95911.53;;;5.51;59.51
13209;BME280;6669;42.678;23.332;2023-02-11T11:00:56;95905.88;;;5.46;59.03
13209;BME280;6669;42.678;23.332;2023-02-11T11:03:26;95904.28;;;5.81;59.20
13209;BME280;6669;42.678;23.332;2023-02-11T11:05:57;95889.63;;;5.81;58.08
13209;BME280;6669;42.678;23.332;2023-02-11T11:08:37;95900.00;;;5.93;57.74
13209;BME280;6669;42.678;23.332;2023-02-11T11:11:07;95895.19;;;6.24;57.52
13209;BME280;6669;42.678;23.332;2023-02-11T11:13:37;95884.94;;;6.69;57.16
13209;BME280;6669;42.678;23.332;2023-02-11T11:16:21;95887.03;;;6.64;56.45
13209;BME280;6669;42.678;23.332;2023-02-11T11:18:50;95885.44;;;6.27;55.71
13209;BME280;6669;42.678;23.332;2023-02-11T11:21:21;95889.00;;;6.37;56.56
13209;BME280;6669;42.678;23.332;2023-02-11T11:23:53;95876.09;;;6.49;54.91
13209;BME280;6669;42.678;23.332;2023-02-11T11:26:22;95887.72;;;6.43;53.87
13209;BME280;6669;42.678;23.332;2023-02-11T11:28:54;95884.38;;;6.07;54.14
13209;BME280;6669;42.678;23.332;2023-02-11T11:31:27;95876.31;;;6.34;52.19
13209;BME280;6669;42.678;23.332;2023-02-11T11:33:58;95879.53;;;6.02;54.27
13209;BME280;6669;42.678;23.332;2023-02-11T11:36:34;95870.41;;;6.21;56.36
13209;BME280;6669;42.678;23.332;2023-02-11T11:39:16;95862.41;;;6.94;54.76
13209;BME280;6669;42.678;23.332;2023-02-11T11:41:51;95863.50;;;7.24;54.21
13209;BME280;6669;42.678;23.332;2023-02-11T11:44:26;95862.56;;;7.36;52.68
13209;BME280;6669;42.678;23.332;2023-02-11T11:47:17;95855.41;;;7.28;51.65
13209;BME280;6669;42.678;23.332;2023-02-11T11:49:52;95854.88;;;6.79;49.20
13209;BME280;6669;42.678;23.332;2023-02-11T11:52:34;95858.22;;;6.23;50.69
13209;BME280;6669;42.678;23.332;2023-02-11T11:55:12;95857.78;;;6.29;52.20
13209;BME280;6669;42.678;23.332;2023-02-11T11:57:42;95849.47;;;6.60;52.91
13209;BME280;6669;42.678;23.332;2023-02-11T12:00:30;95838.75;;;7.10;53.69
13209;BME280;6669;42.678;23.332;2023-02-11T12:06:28;95818.28;;;7.18;52.08
13209;BME280;6669;42.678;23.332;2023-02-11T12:09:11;95819.38;;;6.93;52.18
13209;BME280;6669;42.678;23.332;2023-02-11T12:12:07;95830.91;;;6.66;52.21
13209;BME280;6669;42.678;23.332;2023-02-11T12:14:42;95812.31;;;6.15;52.60
13209;BME280;6669;42.678;23.332;2023-02-11T12:17:23;95808.13;;;6.26;53.61
13209;BME280;6669;42.678;23.332;2023-02-11T12:20:13;95808.34;;;6.22;51.97
13209;BME280;6669;42.678;23.332;2023-02-11T12:22:53;95808.94;;;6.26;50.24
13209;BME280;6669;42.678;23.332;2023-02-11T12:25:26;95797.66;;;6.16;50.19
13209;BME280;6669;42.678;23.332;2023-02-11T12:28:06;95796.75;;;6.62;50.55
13209;BME280;6669;42.678;23.332;2023-02-11T12:30:48;95779.47;;;6.74;50.22
13209;BME280;6669;42.678;23.332;2023-02-11T12:33:31;95789.50;;;7.00;48.88
13209;BME280;6669;42.678;23.332;2023-02-11T12:36:08;95782.63;;;6.78;48.82
13209;BME280;6669;42.678;23.332;2023-02-11T12:38:58;95773.94;;;6.67;50.08
13209;BME280;6669;42.678;23.332;2023-02-11T12:41:40;95784.03;;;6.82;49.30
13209;BME280;6669;42.678;23.332;2023-02-11T12:44:38;95766.22;;;7.11;47.56
13209;BME280;6669;42.678;23.332;2023-02-11T12:47:16;95767.25;;;7.74;49.18
13209;BME280;6669;42.678;23.332;2023-02-11T12:50:03;95755.31;;;7.82;48.38
13209;BME280;6669;42.678;23.332;2023-02-11T12:52:44;95760.28;;;8.16;49.18
13209;BME280;6669;42.678;23.332;2023-02-11T12:55:22;95764.72;;;7.62;49.04
13209;BME280;6669;42.678;23.332;2023-02-11T12:57:54;95758.09;;;7.16;48.56
13209;BME280;6669;42.678;23.332;2023-02-11T13:00:26;95751.69;;;7.31;49.44
13209;BME280;6669;42.678;23.332;2023-02-11T13:03:01;95754.44;;;7.72;49.80
13209;BME280;6669;42.678;23.332;2023-02-11T13:05:37;95752.44;;;8.28;49.01
13209;BME280;6669;42.678;23.332;2023-02-11T13:08:11;95745.56;;;8.89;49.23
13209;BME280;6669;42.678;23.332;2023-02-11T13:10:45;95751.72;;;8.88;48.95
13209;BME280;6669;42.678;23.332;2023-02-11T13:13:20;95744.25;;;9.33;48.39
13209;BME280;6669;42.678;23.332;2023-02-11T13:15:51;95740.09;;;8.41;46.89
13209;BME280;6669;42.678;23.332;2023-02-11T13:18:46;95740.78;;;7.91;46.89
13209;BME280;6669;42.678;23.332;2023-02-11T13:21:25;95737.75;;;7.23;48.26
13209;BME280;6669;42.678;23.332;2023-02-11T13:24:04;95729.69;;;7.04;48.44
13209;BME280;6669;42.678;23.332;2023-02-11T13:26:44;95730.06;;;7.75;49.50
13209;BME280;6669;42.678;23.332;2023-02-11T13:29:20;95747.09;;;7.35;48.28